Decoded Metar for DAUE (EL GOLEA in ALGERIA) (IATA:ELG) | Meteo·Mobile Aviation Weather
aviador You're here:

DAUE Decoded Metar

EL GOLEA in ALGERIA
Report Time2019-12-11 08:00:00
UTC Time2019-12-11 08:49:17
Flight Rules vfr VFR
Wind330° at 05 kt
W.Decomp.*RWY 36: 4.3 kt HW 2.6 kt LCW
RWY 28: 3.3 kt HW 3.8 kt RCW
Visibility9999 m
Phenomena:N/A
Clouds:N/A
Expected CloudBase > 3,200 ft AGL from Temp-Dew spread
CeilingNone
Temp04°C (ISA -8)
Dew Point-4°C (56% RH)
AAT-0.3°C
QNH1024 hPa
Density Alt-20 ft
Elevation1,302 ft
Report Wrong Elevation
Raw Report
METAR DAUE 110800Z 33005KT CAVOK 04/M04 Q1024=

Extra information for DAUE:More info

Metar Taf Metar & Taf Last 4 Metars F.Rules Stats Wind Profile Meteogram Temp Stats Airport Information Weather charts Add Link Nearby VenuesMetar ALERT Operation Metar Decoded Social comments